createdAt,value
2023-05-25T00:01:04.728Z,39.92
2023-05-25T00:03:36.138Z,39.67
2023-05-25T00:06:06.101Z,40.03
2023-05-25T00:08:40.436Z,40.05
2023-05-25T00:11:11.142Z,39.79
2023-05-25T00:13:39.682Z,39.45
2023-05-25T00:16:13.572Z,39.86
2023-05-25T00:18:43.590Z,39.78
2023-05-25T00:21:21.054Z,39.85
2023-05-25T00:23:53.170Z,39.85
2023-05-25T00:26:25.968Z,40.02
2023-05-25T00:28:53.571Z,39.93
2023-05-25T00:31:24.239Z,40.19
2023-05-25T00:33:57.058Z,39.94
2023-05-25T00:36:27.802Z,39.90
2023-05-25T00:38:57.614Z,40.14
2023-05-25T00:41:29.030Z,40.13
2023-05-25T00:44:00.709Z,39.95
2023-05-25T00:46:29.079Z,40.11
2023-05-25T00:48:59.126Z,39.98
2023-05-25T00:51:33.095Z,40.05
2023-05-25T00:54:06.177Z,39.95
2023-05-25T00:56:40.533Z,40.23
2023-05-25T00:59:17.356Z,40.16
2023-05-25T01:01:47.484Z,39.67
2023-05-25T01:04:22.238Z,40.13
2023-05-25T01:06:54.543Z,39.88
2023-05-25T04:18:20.576Z,41.51
2023-05-25T04:20:57.317Z,41.53
2023-05-25T04:23:29.966Z,41.76
2023-05-25T04:26:03.509Z,41.81
2023-05-25T04:28:33.430Z,41.70
2023-05-25T04:31:25.023Z,41.69
2023-05-25T04:34:09.699Z,41.90
2023-05-25T04:36:45.498Z,41.44
2023-05-25T04:39:15.943Z,41.79
2023-05-25T04:41:53.026Z,41.43
2023-05-25T04:44:20.729Z,41.36
2023-05-25T04:46:55.583Z,41.82
2023-05-25T04:49:45.885Z,41.57
2023-05-25T04:52:14.870Z,41.77
2023-05-25T04:54:46.869Z,41.76
2023-05-25T04:57:22.375Z,41.66
2023-05-25T04:59:52.920Z,41.51
2023-05-25T05:02:23.327Z,41.60
2023-05-25T05:04:54.000Z,41.47
2023-05-25T05:07:29.116Z,41.69
2023-05-25T05:09:56.927Z,41.70
2023-05-25T05:12:27.853Z,41.42
2023-05-25T05:15:00.029Z,41.79
2023-05-25T05:17:30.658Z,41.67
2023-05-25T05:20:01.126Z,41.75
2023-05-25T05:22:33.479Z,41.70
2023-05-25T05:25:04.795Z,41.78
2023-05-25T05:27:35.080Z,41.47
2023-05-25T05:30:10.042Z,41.54
2023-05-25T05:32:46.533Z,41.78
2023-05-25T05:35:17.235Z,41.70
2023-05-25T05:37:54.641Z,41.97
2023-05-25T05:40:27.798Z,42.60
2023-05-25T05:42:58.038Z,42.74
2023-05-25T05:45:31.623Z,42.94
2023-05-25T05:48:04.914Z,42.81
2023-05-25T05:50:44.778Z,43.22
2023-05-25T05:53:14.692Z,43.48
2023-05-25T05:55:56.375Z,43.63
2023-05-25T05:58:33.475Z,43.50
2023-05-25T06:01:04.708Z,43.35
2023-05-25T06:03:32.756Z,43.67
2023-05-25T06:06:06.735Z,43.40
2023-05-25T06:08:41.166Z,43.58
2023-05-25T06:11:15.537Z,43.64
2023-05-25T06:13:48.628Z,43.46
2023-05-25T06:16:20.029Z,43.47
2023-05-25T06:18:54.344Z,43.30
2023-05-25T06:21:22.278Z,42.97
2023-05-25T06:23:58.946Z,42.70
2023-05-25T06:26:32.765Z,42.66
2023-05-25T06:29:06.609Z,41.82
2023-05-25T06:31:37.556Z,42.38
2023-05-25T06:34:11.299Z,42.31
2023-05-25T06:36:50.584Z,42.51
2023-05-25T06:39:24.177Z,42.58
2023-05-25T06:42:02.817Z,42.44
2023-05-25T06:44:43.673Z,42.66
2023-05-25T06:47:17.079Z,42.66
2023-05-25T06:49:48.115Z,42.46
2023-05-25T06:52:31.459Z,42.58
2023-05-25T06:55:00.244Z,42.50
2023-05-25T06:57:30.476Z,42.28
2023-05-25T07:00:00.592Z,42.51
2023-05-25T07:02:31.127Z,42.36
2023-05-25T07:05:05.875Z,41.80
2023-05-25T07:07:39.451Z,41.53
2023-05-25T07:10:11.776Z,41.44
2023-05-25T07:12:39.745Z,41.60
2023-05-25T07:15:08.412Z,41.30
2023-05-25T07:17:45.301Z,41.36
2023-05-25T07:20:24.668Z,40.98
2023-05-25T07:23:01.730Z,40.77
2023-05-25T07:25:37.496Z,40.37
2023-05-25T07:28:11.782Z,39.77
2023-05-25T07:30:41.487Z,40.37
2023-05-25T07:33:10.242Z,40.00
2023-05-25T07:35:40.883Z,40.57
2023-05-25T07:38:09.396Z,41.11
2023-05-25T07:40:42.377Z,41.12
2023-05-25T07:43:15.065Z,40.97
2023-05-25T07:45:46.599Z,40.87
2023-05-25T07:48:17.285Z,40.69
2023-05-25T07:50:55.933Z,40.56
2023-05-25T07:53:26.826Z,40.49
2023-05-25T07:55:57.762Z,40.01
2023-05-25T07:58:31.367Z,40.10
2023-05-25T08:01:02.174Z,40.83
2023-05-25T08:03:47.967Z,40.71
2023-05-25T08:06:18.084Z,41.13
2023-05-25T08:08:52.155Z,41.83
2023-05-25T08:11:26.863Z,41.22
2023-05-25T08:13:55.024Z,41.39
2023-05-25T08:16:23.017Z,41.77
2023-05-25T08:18:53.726Z,41.84
2023-05-25T08:21:26.613Z,41.63
2023-05-25T08:24:08.537Z,41.69
2023-05-25T08:26:53.183Z,41.51
2023-05-25T08:29:31.381Z,41.31
2023-05-25T08:32:07.409Z,41.14
2023-05-25T08:34:40.796Z,41.03
2023-05-25T08:37:14.759Z,41.47
2023-05-25T08:39:47.832Z,41.79
2023-05-25T08:42:15.969Z,42.07
2023-05-25T08:44:49.775Z,42.00
2023-05-25T08:47:25.241Z,42.41
2023-05-25T08:50:02.110Z,42.29
2023-05-25T08:52:33.547Z,42.90
2023-05-25T08:55:10.174Z,42.31
2023-05-25T08:58:07.441Z,42.54
2023-05-25T09:00:45.909Z,42.33
2023-05-25T09:03:18.586Z,42.41
2023-05-25T09:05:54.749Z,42.13
2023-05-25T09:08:30.228Z,42.33
2023-05-25T09:10:58.797Z,42.58
2023-05-25T09:13:26.899Z,42.80
2023-05-25T09:16:02.494Z,42.13
2023-05-25T09:18:36.040Z,43.01
2023-05-25T09:21:06.450Z,42.93
2023-05-25T09:23:41.080Z,42.59
2023-05-25T09:26:15.905Z,42.55
2023-05-25T09:28:53.609Z,42.55
2023-05-25T09:31:28.760Z,42.25
2023-05-25T09:34:04.066Z,41.61
2023-05-25T09:36:41.597Z,42.12
2023-05-25T09:39:16.375Z,41.17
2023-05-25T09:41:52.581Z,41.33
2023-05-25T09:44:26.915Z,41.05
2023-05-25T09:46:57.977Z,41.23
2023-05-25T09:49:29.207Z,39.89
2023-05-25T09:52:06.066Z,40.23
2023-05-25T09:54:47.040Z,40.25
2023-05-25T09:57:27.244Z,40.52
2023-05-25T10:00:00.717Z,40.20
2023-05-25T10:02:35.156Z,40.60
2023-05-25T10:05:07.596Z,40.01
2023-05-25T10:07:40.727Z,39.79
2023-05-25T10:10:16.248Z,39.15
2023-05-25T10:12:50.149Z,39.11
2023-05-25T10:15:27.354Z,38.45
2023-05-25T10:18:02.090Z,39.25
2023-05-25T10:20:35.073Z,38.67
2023-05-25T10:23:12.797Z,38.40
2023-05-25T10:25:50.671Z,37.50
2023-05-25T10:28:27.527Z,37.25
2023-05-25T10:31:02.083Z,37.27
2023-05-25T10:33:36.311Z,37.52
2023-05-25T10:38:44.853Z,36.42
2023-05-25T10:41:16.320Z,35.91
2023-05-25T10:43:53.888Z,35.83
2023-05-25T10:46:22.430Z,36.96
2023-05-25T10:49:00.769Z,36.54
2023-05-25T10:51:41.958Z,36.88
2023-05-25T10:54:18.998Z,37.39
2023-05-25T10:57:14.402Z,37.69
2023-05-25T10:59:52.336Z,38.01
2023-05-25T11:02:26.157Z,38.16
2023-05-25T11:05:19.762Z,38.67
2023-05-25T11:08:00.764Z,38.55
2023-05-25T11:10:53.178Z,38.66
2023-05-25T11:13:32.559Z,37.87
2023-05-25T11:16:22.132Z,38.14
2023-05-25T11:18:59.191Z,38.07
2023-05-25T11:21:32.893Z,37.34
2023-05-25T11:24:03.045Z,37.57
2023-05-25T11:26:52.394Z,37.90
2023-05-25T11:29:25.434Z,37.10
2023-05-25T11:31:56.767Z,37.56
2023-05-25T11:34:29.185Z,37.43
2023-05-25T11:37:02.044Z,37.09
2023-05-25T11:39:41.002Z,37.01
2023-05-25T11:42:15.261Z,36.43
2023-05-25T11:44:46.441Z,35.71
2023-05-25T11:47:23.323Z,36.97
2023-05-25T11:49:58.697Z,35.70
2023-05-25T11:52:29.587Z,34.69
2023-05-25T11:54:57.710Z,34.68
2023-05-25T11:57:31.714Z,34.82
2023-05-25T12:00:07.305Z,34.25
2023-05-25T12:02:43.276Z,33.44
2023-05-25T12:05:12.008Z,34.25
2023-05-25T12:07:50.840Z,33.39
2023-05-25T12:10:21.496Z,32.95
2023-05-25T12:12:58.520Z,33.23
2023-05-25T12:15:31.691Z,33.02
2023-05-25T12:18:02.801Z,32.96
2023-05-25T12:20:38.855Z,33.39
2023-05-25T12:23:16.689Z,33.85
2023-05-25T12:25:51.775Z,34.26
2023-05-25T12:28:29.015Z,34.23
2023-05-25T12:31:23.450Z,34.28
2023-05-25T12:34:12.293Z,33.95
2023-05-25T12:36:52.826Z,33.91
2023-05-25T12:39:29.608Z,34.57
2023-05-25T12:42:13.464Z,34.26
2023-05-25T12:44:48.815Z,33.96
2023-05-25T12:47:23.461Z,33.99
2023-05-25T12:50:12.791Z,34.50
2023-05-25T12:52:46.563Z,34.39
2023-05-25T12:55:27.485Z,34.69
2023-05-25T12:58:04.834Z,34.52
2023-05-25T13:00:41.140Z,34.93
2023-05-25T13:03:17.433Z,34.86
2023-05-25T13:05:52.055Z,35.46
2023-05-25T13:08:25.800Z,34.85
2023-05-25T13:10:56.365Z,34.83
2023-05-25T13:13:33.061Z,34.23
2023-05-25T13:16:04.748Z,34.33
2023-05-25T13:18:40.505Z,34.64
2023-05-25T13:21:12.605Z,34.61
2023-05-25T13:23:43.534Z,34.58
2023-05-25T13:26:12.664Z,34.70
2023-05-25T13:28:43.011Z,34.81
2023-05-25T13:31:18.601Z,35.39
2023-05-25T13:33:58.697Z,33.81
2023-05-25T13:36:29.655Z,34.73
2023-05-25T13:39:01.801Z,34.27
2023-05-25T13:41:32.476Z,34.73
2023-05-25T13:44:11.509Z,34.24
2023-05-25T13:46:47.496Z,34.13
2023-05-25T13:49:26.357Z,34.48
2023-05-25T13:51:57.982Z,34.35
2023-05-25T13:54:34.243Z,33.84
2023-05-25T13:57:08.976Z,33.77
2023-05-25T13:59:43.160Z,34.23
2023-05-25T14:02:16.317Z,34.05
2023-05-25T14:04:46.185Z,34.12
2023-05-25T14:07:24.338Z,33.33
2023-05-25T14:09:54.912Z,33.29
2023-05-25T14:12:32.624Z,33.79
2023-05-25T14:15:13.573Z,33.84
2023-05-25T14:17:49.780Z,33.91
2023-05-25T14:20:26.353Z,34.09
2023-05-25T14:23:02.682Z,33.77
2023-05-25T14:25:38.727Z,33.91
2023-05-25T14:28:18.332Z,33.78
2023-05-25T14:30:54.025Z,33.32
2023-05-25T14:33:32.908Z,33.22
2023-05-25T14:36:05.875Z,33.17
2023-05-25T14:38:41.993Z,32.98
2023-05-25T14:41:22.800Z,33.83
2023-05-25T14:43:56.150Z,33.54
2023-05-25T14:46:26.333Z,33.81
2023-05-25T14:48:56.321Z,34.27
2023-05-25T14:51:28.526Z,34.74
2023-05-25T14:54:01.495Z,35.79
2023-05-25T14:56:35.005Z,34.75
2023-05-25T14:59:04.581Z,34.97
2023-05-25T15:01:41.273Z,33.97
2023-05-25T15:04:14.951Z,34.48
2023-05-25T15:07:00.959Z,34.61
2023-05-25T15:09:33.666Z,34.58
2023-05-25T15:12:13.278Z,34.61
2023-05-25T15:14:46.809Z,34.78
2023-05-25T15:17:17.673Z,34.66
2023-05-25T15:19:48.812Z,35.03
2023-05-25T15:22:21.570Z,34.87
2023-05-25T15:24:54.996Z,34.76
2023-05-25T15:27:27.221Z,34.86
2023-05-25T15:29:59.042Z,34.86
2023-05-25T15:32:38.388Z,35.28
2023-05-25T15:35:12.113Z,35.79
2023-05-25T15:37:51.729Z,35.35
2023-05-25T15:40:29.198Z,35.29
2023-05-25T15:43:06.398Z,35.92
2023-05-25T15:45:42.065Z,36.27
2023-05-25T15:48:18.054Z,36.26
2023-05-25T15:50:53.083Z,36.29
2023-05-25T15:53:29.226Z,36.34
2023-05-25T15:56:00.454Z,36.88
2023-05-25T15:58:41.716Z,37.25
2023-05-25T16:01:18.059Z,36.99
2023-05-25T16:03:54.031Z,36.70
2023-05-25T16:06:24.729Z,37.25
2023-05-25T16:09:01.258Z,37.62
2023-05-25T16:11:34.124Z,37.02
2023-05-25T16:14:07.547Z,37.27
2023-05-25T16:16:37.926Z,37.29
2023-05-25T16:19:13.818Z,37.53
2023-05-25T16:21:42.032Z,37.37
2023-05-25T16:24:12.721Z,37.21
2023-05-25T16:26:43.503Z,37.39
2023-05-25T16:29:11.899Z,37.54
2023-05-25T16:31:39.841Z,37.51
2023-05-25T16:34:07.860Z,37.68
2023-05-25T16:36:35.942Z,37.76
2023-05-25T16:39:05.158Z,37.49
2023-05-25T16:41:33.098Z,37.76
2023-05-25T16:44:01.615Z,37.51
2023-05-25T16:46:30.042Z,37.47
2023-05-25T16:49:02.750Z,37.65
2023-05-25T16:51:30.518Z,37.75
2023-05-25T16:54:01.373Z,37.75
2023-05-25T16:56:34.357Z,37.59
2023-05-25T16:59:02.114Z,37.47
2023-05-25T17:01:33.150Z,37.81
2023-05-25T17:04:04.521Z,37.60
2023-05-25T17:06:36.677Z,37.61
2023-05-25T17:09:04.313Z,37.53
2023-05-25T17:11:31.977Z,37.50
2023-05-25T17:14:04.886Z,37.50
2023-05-25T17:16:35.437Z,37.31
2023-05-25T17:19:08.438Z,37.54
2023-05-25T17:21:39.770Z,37.46
2023-05-25T17:24:08.501Z,37.42
2023-05-25T17:26:36.333Z,37.55
2023-05-25T17:29:06.159Z,37.58
2023-05-25T17:31:33.825Z,37.51
2023-05-25T17:34:07.016Z,37.61
2023-05-25T17:36:37.869Z,37.44
2023-05-25T17:39:09.145Z,37.50
2023-05-25T17:41:37.082Z,37.87
2023-05-25T17:44:05.940Z,37.55
2023-05-25T17:46:38.905Z,37.47
2023-05-25T17:49:06.692Z,37.75
2023-05-25T17:51:34.430Z,37.76
2023-05-25T17:54:07.719Z,37.70
2023-05-25T17:56:38.422Z,37.65
2023-05-25T17:59:11.947Z,37.83
2023-05-25T18:01:40.784Z,37.90
2023-05-25T18:04:12.389Z,38.01
2023-05-25T18:06:45.764Z,37.98
2023-05-25T18:09:19.931Z,38.08
2023-05-25T18:11:56.607Z,38.09
2023-05-25T18:14:35.333Z,38.16
2023-05-25T18:17:09.363Z,38.37
2023-05-25T18:19:42.887Z,38.21
2023-05-25T18:22:10.545Z,38.33
2023-05-25T18:24:43.128Z,38.35
2023-05-25T18:27:13.959Z,38.41
2023-05-25T18:29:45.217Z,38.48
2023-05-25T18:32:18.370Z,38.43
2023-05-25T18:34:49.106Z,38.46
2023-05-25T18:37:16.861Z,38.38
2023-05-25T18:39:44.604Z,38.49
2023-05-25T18:42:17.584Z,38.37
2023-05-25T18:44:50.935Z,38.48
2023-05-25T18:47:18.827Z,38.60
2023-05-25T18:49:47.136Z,38.73
2023-05-25T18:52:20.983Z,38.89
2023-05-25T18:54:49.284Z,38.77
2023-05-25T18:57:17.179Z,38.90
2023-05-25T18:59:44.782Z,38.86
2023-05-25T19:02:14.915Z,38.77
2023-05-25T19:04:47.677Z,38.82
2023-05-25T19:07:18.205Z,38.62
2023-05-25T19:09:48.256Z,38.93
2023-05-25T19:12:16.168Z,38.94
2023-05-25T19:14:47.083Z,38.99
2023-05-25T19:17:22.445Z,39.06
2023-05-25T19:19:50.058Z,39.04
2023-05-25T19:22:20.947Z,39.05
2023-05-25T19:24:57.498Z,39.08
2023-05-25T19:27:28.617Z,39.36
2023-05-25T19:30:05.650Z,39.04
2023-05-25T19:32:35.835Z,39.21
2023-05-25T19:35:06.559Z,39.36
2023-05-25T19:37:37.996Z,39.08
2023-05-25T19:40:09.545Z,39.16
2023-05-25T19:42:40.219Z,39.24
2023-05-25T19:45:11.008Z,39.09
2023-05-25T19:47:39.128Z,39.09
2023-05-25T19:50:07.684Z,39.16
2023-05-25T19:52:36.444Z,39.14
2023-05-25T19:55:10.029Z,39.23
2023-05-25T19:57:40.217Z,39.47
2023-05-25T20:00:17.574Z,39.15
2023-05-25T20:02:56.255Z,39.29
2023-05-25T20:05:26.761Z,39.42
2023-05-25T20:08:03.818Z,39.55
2023-05-25T20:10:38.992Z,39.36
2023-05-25T20:13:12.593Z,39.13
2023-05-25T20:15:45.358Z,39.53
2023-05-25T20:18:16.482Z,39.56
2023-05-25T20:20:49.479Z,39.47
2023-05-25T20:23:17.219Z,39.56
2023-05-25T20:25:50.143Z,39.54
2023-05-25T20:28:20.988Z,39.48
2023-05-25T20:30:50.964Z,39.56
2023-05-25T20:33:25.678Z,39.58
2023-05-25T20:36:04.876Z,39.75
2023-05-25T20:38:34.655Z,39.88
2023-05-25T20:41:02.760Z,39.56
2023-05-25T20:43:30.681Z,39.86
2023-05-25T20:46:24.016Z,39.85
2023-05-25T20:48:53.525Z,39.96
2023-05-25T20:51:24.358Z,39.67
2023-05-25T20:54:01.249Z,39.97
2023-05-25T20:56:32.167Z,39.84
2023-05-25T20:59:02.278Z,39.79
2023-05-25T21:01:35.819Z,39.84
2023-05-25T21:04:04.317Z,39.86
2023-05-25T21:06:32.212Z,40.21
2023-05-25T21:09:02.451Z,40.09
2023-05-25T21:11:33.654Z,39.90
2023-05-25T21:14:09.997Z,40.25
2023-05-25T21:16:37.653Z,40.09
2023-05-25T21:19:05.780Z,40.01
2023-05-25T21:21:34.587Z,40.21
2023-05-25T21:24:07.694Z,40.17
2023-05-25T21:26:37.654Z,40.14
2023-05-25T21:29:05.425Z,40.12
2023-05-25T21:31:37.608Z,39.76
2023-05-25T21:34:08.145Z,40.08
2023-05-25T21:36:36.438Z,40.08
2023-05-25T21:39:06.896Z,40.06
2023-05-25T21:41:39.547Z,40.22
2023-05-25T21:44:10.224Z,40.25
2023-05-25T21:46:39.234Z,40.52
2023-05-25T21:49:07.719Z,40.22
2023-05-25T21:51:36.544Z,40.28
2023-05-25T21:54:16.713Z,40.17
2023-05-25T21:56:44.528Z,40.37
2023-05-25T21:59:12.400Z,40.51
2023-05-25T22:01:40.151Z,40.31
2023-05-25T22:04:10.498Z,40.18
2023-05-25T22:06:48.560Z,40.29
2023-05-25T22:09:18.485Z,40.27
2023-05-25T22:11:54.322Z,40.38
2023-05-25T22:14:26.832Z,40.58
2023-05-25T22:16:59.633Z,40.69
2023-05-25T22:19:29.528Z,40.46
2023-05-25T22:21:59.946Z,40.69
2023-05-25T22:24:37.997Z,40.17
2023-05-25T22:27:09.214Z,40.57
2023-05-25T22:29:39.307Z,40.55
2023-05-25T22:32:07.050Z,40.47
2023-05-25T22:34:35.042Z,40.38
2023-05-25T22:37:04.783Z,40.74
2023-05-25T22:39:32.561Z,40.45
2023-05-25T22:42:02.304Z,40.43
2023-05-25T22:44:29.868Z,40.50
2023-05-25T22:47:06.140Z,40.43
2023-05-25T22:49:41.750Z,40.92
2023-05-25T22:52:14.347Z,40.24
2023-05-25T22:54:44.409Z,40.80
2023-05-25T22:57:12.026Z,40.62
2023-05-25T22:59:42.389Z,40.91
2023-05-25T23:02:12.657Z,40.64
2023-05-25T23:04:40.709Z,40.58
2023-05-25T23:07:14.283Z,40.79
2023-05-25T23:09:42.629Z,40.76
2023-05-25T23:12:18.459Z,40.82
2023-05-25T23:14:46.324Z,40.84
2023-05-25T23:17:16.352Z,40.79
2023-05-25T23:19:44.855Z,40.63
2023-05-25T23:22:17.816Z,41.07
2023-05-25T23:24:45.869Z,40.74
2023-05-25T23:27:19.478Z,40.81
2023-05-25T23:29:50.793Z,40.77
2023-05-25T23:32:21.132Z,40.86
2023-05-25T23:34:51.240Z,40.53
2023-05-25T23:37:25.318Z,40.93
2023-05-25T23:39:55.516Z,40.82
2023-05-25T23:42:37.284Z,40.75
2023-05-25T23:45:05.740Z,41.02
2023-05-25T23:47:36.291Z,40.86
2023-05-25T23:50:12.045Z,40.68
2023-05-25T23:52:47.525Z,40.84
2023-05-25T23:55:18.356Z,40.74
2023-05-25T23:57:51.211Z,40.90
